Time,TemperatureF,DewpointF,PressureIn,WindDirection,WindDirectionDegrees,WindSpeedMPH,WindSpeedGustMPH,Humidity,HourlyPrecipIn,Conditions,Clouds,dailyrainin,SoftwareType,DateUTC
2013-09-05 00:23:00,69.0,61.0,30.11,SSE,164,2.0,3.0,77,0.00,,,0.00,,2013-09-05 05:23:00,
2013-09-05 00:52:00,68.0,61.0,30.11,South,178,2.0,3.0,78,0.00,,,0.00,,2013-09-05 05:52:00,
2013-09-05 01:12:00,68.0,61.0,30.12,South,179,3.0,4.0,78,0.00,,,0.00,,2013-09-05 06:12:00,
2013-09-05 01:22:00,68.0,61.0,30.12,South,176,3.0,5.0,78,0.00,,,0.00,,2013-09-05 06:22:00,
2013-09-05 01:52:00,68.0,61.0,30.11,South,169,3.0,4.0,77,0.00,,,0.00,,2013-09-05 06:52:00,
2013-09-05 02:12:00,68.0,61.0,30.11,South,169,3.0,4.0,78,0.00,,,0.00,,2013-09-05 07:12:00,
2013-09-05 02:23:00,68.0,61.0,30.11,South,169,3.0,4.0,78,0.00,,,0.00,,2013-09-05 07:23:00,
2013-09-05 02:52:00,68.0,61.0,30.12,South,171,2.0,4.0,79,0.00,,,0.00,,2013-09-05 07:52:00,
2013-09-05 03:22:00,67.0,61.0,30.12,South,171,1.0,3.0,80,0.00,,,0.00,,2013-09-05 08:22:00,
2013-09-05 03:52:00,66.0,60.0,30.12,South,171,2.0,4.0,81,0.00,,,0.00,,2013-09-05 08:52:00,
2013-09-05 04:11:00,66.0,60.0,30.11,South,171,2.0,3.0,81,0.00,,,0.00,,2013-09-05 09:11:00,
2013-09-05 04:22:00,66.0,60.0,30.12,South,171,2.0,4.0,82,0.00,,,0.00,,2013-09-05 09:22:00,
2013-09-05 04:53:00,66.0,60.0,30.12,South,171,2.0,5.0,81,0.00,,,0.00,,2013-09-05 09:53:00,
2013-09-05 05:12:00,66.0,60.0,30.11,South,171,2.0,4.0,82,0.00,,,0.00,,2013-09-05 10:12:00,
2013-09-05 05:23:00,65.0,60.0,30.11,South,171,2.0,4.0,84,0.00,,,0.00,,2013-09-05 10:23:00,
2013-09-05 05:53:00,66.0,61.0,30.12,South,171,0.0,0.0,83,0.00,,,0.00,,2013-09-05 10:53:00,
2013-09-05 06:12:00,65.0,60.0,30.12,South,171,0.0,0.0,84,0.00,,,0.00,,2013-09-05 11:12:00,
2013-09-05 06:22:00,64.0,59.0,30.12,South,171,0.0,0.0,85,0.00,,,0.00,,2013-09-05 11:22:00,
2013-09-05 06:52:00,66.0,61.0,30.12,South,171,0.0,0.0,84,0.00,,,0.00,,2013-09-05 11:52:00,
2013-09-05 07:13:00,66.0,61.0,30.13,South,171,0.0,0.0,84,0.00,,,0.00,,2013-09-05 12:13:00,
2013-09-05 07:21:00,65.0,60.0,30.13,South,171,0.0,0.0,84,0.00,,,0.00,,2013-09-05 12:21:00,
2013-09-05 07:52:00,65.0,60.0,30.14,South,171,0.0,0.0,85,0.00,,,0.00,,2013-09-05 12:52:00,
2013-09-05 08:12:00,65.0,60.0,30.14,South,171,0.0,0.0,85,0.00,,,0.00,,2013-09-05 13:12:00,
2013-09-05 08:21:00,65.0,61.0,30.16,South,171,0.0,0.0,86,0.00,,,0.00,,2013-09-05 13:21:00,
2013-09-05 08:53:00,68.0,64.0,30.16,South,171,0.0,0.0,86,0.00,,,0.00,,2013-09-05 13:53:00,
2013-09-05 09:22:00,73.0,65.0,30.16,South,171,0.0,4.0,75,0.00,,,0.00,,2013-09-05 14:22:00,
2013-09-05 09:52:00,74.0,66.0,30.16,South,174,0.0,2.0,75,0.00,,,0.00,,2013-09-05 14:52:00,
2013-09-05 10:22:00,78.0,66.0,30.16,SSE,163,3.0,8.0,66,0.00,,,0.00,,2013-09-05 15:22:00,
2013-09-05 10:54:00,81.0,67.0,30.16,SSE,163,3.0,6.0,63,0.00,,,0.00,,2013-09-05 15:54:00,
2013-09-05 11:24:00,84.0,68.0,30.16,South,180,0.0,6.0,59,0.00,,,0.00,,2013-09-05 16:24:00,
2013-09-05 11:54:00,86.0,68.0,30.16,SSE,164,1.0,5.0,55,0.00,,,0.00,,2013-09-05 16:54:00,
2013-09-05 12:12:00,87.0,69.0,30.16,SSE,155,0.0,2.0,56,0.00,,,0.00,,2013-09-05 17:12:00,
2013-09-05 12:23:00,88.0,68.0,30.15,SSE,155,1.0,7.0,52,0.00,,,0.00,,2013-09-05 17:23:00,
2013-09-05 12:43:00,89.0,68.0,30.14,South,186,1.0,10.0,50,0.00,,,0.00,,2013-09-05 17:43:00,
2013-09-05 12:52:00,89.0,67.0,30.14,SSE,162,5.0,12.0,49,0.00,,,0.00,,2013-09-05 17:52:00,
2013-09-05 13:12:00,90.0,67.0,30.14,SSW,203,4.0,10.0,47,0.00,,,0.00,,2013-09-05 18:12:00,
2013-09-05 13:22:00,91.0,68.0,30.13,SSE,152,5.0,10.0,47,0.00,,,0.00,,2013-09-05 18:22:00,
2013-09-05 14:11:00,92.0,69.0,30.11,SSE,147,9.0,12.0,48,0.00,,,0.00,,2013-09-05 19:11:00,
2013-09-05 14:42:00,93.0,68.0,30.11,NE,55,2.0,12.0,44,0.00,,,0.00,,2013-09-05 19:42:00,
2013-09-05 14:52:00,93.0,67.0,30.10,South,170,8.0,12.0,43,0.00,,,0.00,,2013-09-05 19:52:00,
2013-09-05 17:53:00,92.0,68.0,30.06,SE,136,9.0,14.0,45,0.00,,,0.00,,2013-09-05 22:53:00,
2013-09-05 18:53:00,89.0,67.0,30.05,SE,129,7.0,12.0,48,0.00,,,0.00,,2013-09-05 23:53:00,
2013-09-05 19:12:00,88.0,66.0,30.06,SSE,150,5.0,10.0,49,0.00,,,0.00,,2013-09-06 00:12:00,
2013-09-05 19:22:00,87.0,67.0,30.06,SE,136,5.0,9.0,51,0.00,,,0.00,,2013-09-06 00:22:00,
2013-09-05 19:42:00,86.0,66.0,30.05,SE,141,5.0,7.0,52,0.00,,,0.00,,2013-09-06 00:42:00,
2013-09-05 19:52:00,85.0,66.0,30.05,SE,142,5.0,7.0,54,0.00,,,0.00,,2013-09-06 00:52:00,
2013-09-05 22:22:00,76.0,65.0,30.07,SE,145,7.0,11.0,69,0.00,,,0.00,,2013-09-06 03:22:00,
2013-09-05 22:55:00,77.0,66.0,30.07,SSE,156,6.0,10.0,68,0.00,,,0.00,,2013-09-06 03:55:00,
2013-09-05 23:23:00,76.0,65.0,30.08,SE,145,5.0,10.0,69,0.00,,,0.00,,2013-09-06 04:23:00,
2013-09-05 23:54:00,75.0,65.0,30.09,SSE,157,4.0,6.0,70,0.00,,,0.00,,2013-09-06 04:54:00,